sensor_id;sensor_type;location;lat;lon;timestamp;temperature;humidity
73643;DHT22;61938;48.652;9.292;2023-06-10T00:01:00;17.90;99.90
73643;DHT22;61938;48.652;9.292;2023-06-10T00:03:26;17.90;99.90
73643;DHT22;61938;48.652;9.292;2023-06-10T00:05:52;17.80;99.90
73643;DHT22;61938;48.652;9.292;2023-06-10T00:08:17;17.80;99.90
73643;DHT22;61938;48.652;9.292;2023-06-10T00:10:45;17.80;99.90
73643;DHT22;61938;48.652;9.292;2023-06-10T00:13:10;17.70;99.90
73643;DHT22;61938;48.652;9.292;2023-06-10T00:15:39;17.60;99.90
73643;DHT22;61938;48.652;9.292;2023-06-10T00:18:05;17.50;99.90
73643;DHT22;61938;48.652;9.292;2023-06-10T00:20:31;17.50;99.90
73643;DHT22;61938;48.652;9.292;2023-06-10T00:22:58;17.50;99.90
73643;DHT22;61938;48.652;9.292;2023-06-10T00:25:24;17.40;99.90
73643;DHT22;61938;48.652;9.292;2023-06-10T00:27:51;17.40;99.90
73643;DHT22;61938;48.652;9.292;2023-06-10T00:30:16;17.30;99.90
73643;DHT22;61938;48.652;9.292;2023-06-10T00:32:42;17.30;99.90
73643;DHT22;61938;48.652;9.292;2023-06-10T00:35:07;17.30;99.90
73643;DHT22;61938;48.652;9.292;2023-06-10T00:37:33;17.20;99.90
73643;DHT22;61938;48.652;9.292;2023-06-10T00:40:02;17.10;99.90
73643;DHT22;61938;48.652;9.292;2023-06-10T00:42:27;17.10;99.90
73643;DHT22;61938;48.652;9.292;2023-06-10T00:44:54;17.00;99.90
73643;DHT22;61938;48.652;9.292;2023-06-10T00:47:20;16.90;99.90
73643;DHT22;61938;48.652;9.292;2023-06-10T00:49:46;16.70;99.90
73643;DHT22;61938;48.652;9.292;2023-06-10T00:52:14;16.60;99.90
73643;DHT22;61938;48.652;9.292;2023-06-10T00:54:41;16.60;99.90
73643;DHT22;61938;48.652;9.292;2023-06-10T00:57:07;16.50;99.90
73643;DHT22;61938;48.652;9.292;2023-06-10T00:59:32;16.40;99.90
73643;DHT22;61938;48.652;9.292;2023-06-10T01:01:58;16.40;99.90
73643;DHT22;61938;48.652;9.292;2023-06-10T01:04:24;16.30;99.90
73643;DHT22;61938;48.652;9.292;2023-06-10T01:06:53;16.20;99.90
73643;DHT22;61938;48.652;9.292;2023-06-10T01:12:46;16.10;99.90
73643;DHT22;61938;48.652;9.292;2023-06-10T01:15:16;16.10;99.90
73643;DHT22;61938;48.652;9.292;2023-06-10T01:17:58;16.00;99.90
73643;DHT22;61938;48.652;9.292;2023-06-10T01:20:25;15.80;99.90
73643;DHT22;61938;48.652;9.292;2023-06-10T01:22:53;15.80;99.90
73643;DHT22;61938;48.652;9.292;2023-06-10T01:25:20;15.60;99.90
73643;DHT22;61938;48.652;9.292;2023-06-10T01:27:54;15.50;99.90
73643;DHT22;61938;48.652;9.292;2023-06-10T01:30:27;15.50;99.90
73643;DHT22;61938;48.652;9.292;2023-06-10T01:32:58;15.50;99.90
73643;DHT22;61938;48.652;9.292;2023-06-10T01:35:25;15.40;99.90
73643;DHT22;61938;48.652;9.292;2023-06-10T01:37:53;15.30;99.90
73643;DHT22;61938;48.652;9.292;2023-06-10T01:40:20;15.20;99.90
73643;DHT22;61938;48.652;9.292;2023-06-10T01:42:45;15.10;99.90
73643;DHT22;61938;48.652;9.292;2023-06-10T01:45:11;15.10;99.90
73643;DHT22;61938;48.652;9.292;2023-06-10T01:47:37;15.10;99.90
73643;DHT22;61938;48.652;9.292;2023-06-10T01:50:02;15.10;99.90
73643;DHT22;61938;48.652;9.292;2023-06-10T01:52:28;15.10;99.90
73643;DHT22;61938;48.652;9.292;2023-06-10T01:54:53;15.10;99.90
73643;DHT22;61938;48.652;9.292;2023-06-10T01:57:19;15.10;99.90
73643;DHT22;61938;48.652;9.292;2023-06-10T01:59:44;15.00;99.90
73643;DHT22;61938;48.652;9.292;2023-06-10T02:02:11;14.90;99.90
73643;DHT22;61938;48.652;9.292;2023-06-10T02:04:37;14.80;99.90
73643;DHT22;61938;48.652;9.292;2023-06-10T02:07:02;14.80;99.90
73643;DHT22;61938;48.652;9.292;2023-06-10T02:09:30;14.70;99.90
73643;DHT22;61938;48.652;9.292;2023-06-10T02:11:55;14.60;99.90
73643;DHT22;61938;48.652;9.292;2023-06-10T02:14:21;14.60;99.90
73643;DHT22;61938;48.652;9.292;2023-06-10T02:16:46;14.50;99.90
73643;DHT22;61938;48.652;9.292;2023-06-10T02:19:13;14.50;99.90
73643;DHT22;61938;48.652;9.292;2023-06-10T02:21:38;14.40;99.90
73643;DHT22;61938;48.652;9.292;2023-06-10T02:24:04;14.40;99.90
73643;DHT22;61938;48.652;9.292;2023-06-10T02:26:30;14.20;99.90
73643;DHT22;61938;48.652;9.292;2023-06-10T02:28:56;14.20;99.90
73643;DHT22;61938;48.652;9.292;2023-06-10T02:31:22;14.10;99.90
73643;DHT22;61938;48.652;9.292;2023-06-10T02:33:49;14.00;99.90
73643;DHT22;61938;48.652;9.292;2023-06-10T02:36:14;14.00;99.90
73643;DHT22;61938;48.652;9.292;2023-06-10T02:38:41;14.00;99.90
73643;DHT22;61938;48.652;9.292;2023-06-10T02:41:07;14.00;99.90
73643;DHT22;61938;48.652;9.292;2023-06-10T02:43:32;13.90;99.90
73643;DHT22;61938;48.652;9.292;2023-06-10T02:45:58;13.80;99.90
73643;DHT22;61938;48.652;9.292;2023-06-10T02:48:27;13.70;99.90
73643;DHT22;61938;48.652;9.292;2023-06-10T02:50:53;13.70;99.90
73643;DHT22;61938;48.652;9.292;2023-06-10T02:53:18;13.70;99.90
73643;DHT22;61938;48.652;9.292;2023-06-10T02:55:44;13.70;99.90
73643;DHT22;61938;48.652;9.292;2023-06-10T02:58:09;13.70;99.90
73643;DHT22;61938;48.652;9.292;2023-06-10T03:00:35;13.60;99.90
73643;DHT22;61938;48.652;9.292;2023-06-10T03:03:02;13.60;99.90
73643;DHT22;61938;48.652;9.292;2023-06-10T03:05:29;13.70;99.90
73643;DHT22;61938;48.652;9.292;2023-06-10T03:07:55;13.70;99.90
73643;DHT22;61938;48.652;9.292;2023-06-10T03:10:20;13.70;99.90
73643;DHT22;61938;48.652;9.292;2023-06-10T03:12:46;13.60;99.90
73643;DHT22;61938;48.652;9.292;2023-06-10T03:15:11;13.60;99.90
73643;DHT22;61938;48.652;9.292;2023-06-10T03:17:37;13.60;99.90
73643;DHT22;61938;48.652;9.292;2023-06-10T03:20:03;13.60;99.90
73643;DHT22;61938;48.652;9.292;2023-06-10T03:22:34;13.60;99.90
73643;DHT22;61938;48.652;9.292;2023-06-10T03:25:00;13.60;99.90
73643;DHT22;61938;48.652;9.292;2023-06-10T03:27:25;13.60;99.90
73643;DHT22;61938;48.652;9.292;2023-06-10T03:29:52;13.60;99.90
73643;DHT22;61938;48.652;9.292;2023-06-10T03:32:17;13.70;99.90
73643;DHT22;61938;48.652;9.292;2023-06-10T03:34:43;13.70;99.90
73643;DHT22;61938;48.652;9.292;2023-06-10T03:37:10;13.70;99.90
73643;DHT22;61938;48.652;9.292;2023-06-10T03:39:36;13.80;99.90
73643;DHT22;61938;48.652;9.292;2023-06-10T03:42:01;13.80;99.90
73643;DHT22;61938;48.652;9.292;2023-06-10T03:44:27;13.80;99.90
73643;DHT22;61938;48.652;9.292;2023-06-10T03:46:53;13.80;99.90
73643;DHT22;61938;48.652;9.292;2023-06-10T03:49:19;13.80;99.90
73643;DHT22;61938;48.652;9.292;2023-06-10T03:51:44;13.80;99.90
73643;DHT22;61938;48.652;9.292;2023-06-10T03:54:10;13.80;99.90
73643;DHT22;61938;48.652;9.292;2023-06-10T03:56:36;13.90;99.90
73643;DHT22;61938;48.652;9.292;2023-06-10T03:59:01;14.00;99.90
73643;DHT22;61938;48.652;9.292;2023-06-10T04:01:27;14.00;99.90
73643;DHT22;61938;48.652;9.292;2023-06-10T04:03:53;14.00;99.90
73643;DHT22;61938;48.652;9.292;2023-06-10T04:06:20;14.10;99.90
73643;DHT22;61938;48.652;9.292;2023-06-10T04:08:48;14.10;99.90
73643;DHT22;61938;48.652;9.292;2023-06-10T04:11:13;14.10;99.90
73643;DHT22;61938;48.652;9.292;2023-06-10T04:13:39;14.00;99.90
73643;DHT22;61938;48.652;9.292;2023-06-10T04:16:05;14.00;99.90
73643;DHT22;61938;48.652;9.292;2023-06-10T04:18:30;14.10;99.90
73643;DHT22;61938;48.652;9.292;2023-06-10T04:20:56;14.10;99.90
73643;DHT22;61938;48.652;9.292;2023-06-10T04:23:22;14.10;99.90
73643;DHT22;61938;48.652;9.292;2023-06-10T04:25:48;14.10;99.90
73643;DHT22;61938;48.652;9.292;2023-06-10T04:28:13;14.20;99.90
73643;DHT22;61938;48.652;9.292;2023-06-10T04:30:39;14.30;99.90
73643;DHT22;61938;48.652;9.292;2023-06-10T04:33:05;14.30;99.90
73643;DHT22;61938;48.652;9.292;2023-06-10T04:35:32;14.90;99.90
73643;DHT22;61938;48.652;9.292;2023-06-10T04:37:57;14.50;99.90
73643;DHT22;61938;48.652;9.292;2023-06-10T04:40:23;14.60;99.90
73643;DHT22;61938;48.652;9.292;2023-06-10T04:42:48;14.70;99.90
73643;DHT22;61938;48.652;9.292;2023-06-10T04:45:14;14.80;99.90
73643;DHT22;61938;48.652;9.292;2023-06-10T04:47:40;15.00;99.90
73643;DHT22;61938;48.652;9.292;2023-06-10T04:50:06;15.10;99.90
73643;DHT22;61938;48.652;9.292;2023-06-10T04:52:31;15.20;99.90
73643;DHT22;61938;48.652;9.292;2023-06-10T04:54:58;15.30;99.90
73643;DHT22;61938;48.652;9.292;2023-06-10T04:57:24;15.50;99.90
73643;DHT22;61938;48.652;9.292;2023-06-10T04:59:49;15.70;99.90
73643;DHT22;61938;48.652;9.292;2023-06-10T05:02:15;15.90;99.90
73643;DHT22;61938;48.652;9.292;2023-06-10T05:04:40;16.20;99.90
73643;DHT22;61938;48.652;9.292;2023-06-10T05:07:06;16.30;99.90
73643;DHT22;61938;48.652;9.292;2023-06-10T05:09:31;16.50;99.90
73643;DHT22;61938;48.652;9.292;2023-06-10T05:11:58;16.70;99.90
73643;DHT22;61938;48.652;9.292;2023-06-10T05:14:23;16.90;99.90
73643;DHT22;61938;48.652;9.292;2023-06-10T05:16:49;17.10;99.90
73643;DHT22;61938;48.652;9.292;2023-06-10T05:19:14;17.30;99.90
73643;DHT22;61938;48.652;9.292;2023-06-10T05:21:41;17.50;99.90
73643;DHT22;61938;48.652;9.292;2023-06-10T05:24:07;17.60;99.90
73643;DHT22;61938;48.652;9.292;2023-06-10T05:26:33;17.90;99.90
73643;DHT22;61938;48.652;9.292;2023-06-10T05:29:02;18.10;99.90
73643;DHT22;61938;48.652;9.292;2023-06-10T05:31:28;18.30;99.90
73643;DHT22;61938;48.652;9.292;2023-06-10T05:33:53;18.50;99.90
73643;DHT22;61938;48.652;9.292;2023-06-10T05:36:19;18.50;99.90
73643;DHT22;61938;48.652;9.292;2023-06-10T05:38:44;18.70;99.90
73643;DHT22;61938;48.652;9.292;2023-06-10T05:41:10;18.80;99.90
73643;DHT22;61938;48.652;9.292;2023-06-10T05:43:35;18.90;99.90
73643;DHT22;61938;48.652;9.292;2023-06-10T05:46:01;19.10;99.90
73643;DHT22;61938;48.652;9.292;2023-06-10T05:48:26;19.30;99.90
73643;DHT22;61938;48.652;9.292;2023-06-10T05:50:52;19.50;99.90
73643;DHT22;61938;48.652;9.292;2023-06-10T05:53:17;19.70;99.90
73643;DHT22;61938;48.652;9.292;2023-06-10T05:55:44;19.80;99.90
73643;DHT22;61938;48.652;9.292;2023-06-10T05:58:10;20.00;99.90
73643;DHT22;61938;48.652;9.292;2023-06-10T06:00:38;20.10;99.90
73643;DHT22;61938;48.652;9.292;2023-06-10T06:03:03;20.20;99.90
73643;DHT22;61938;48.652;9.292;2023-06-10T06:05:29;19.30;99.90
73643;DHT22;61938;48.652;9.292;2023-06-10T06:08:02;20.50;99.90
73643;DHT22;61938;48.652;9.292;2023-06-10T06:10:28;20.70;99.90
73643;DHT22;61938;48.652;9.292;2023-06-10T06:12:53;20.90;99.90
73643;DHT22;61938;48.652;9.292;2023-06-10T06:15:19;21.00;99.90
73643;DHT22;61938;48.652;9.292;2023-06-10T06:17:44;21.10;99.90
73643;DHT22;61938;48.652;9.292;2023-06-10T06:20:10;21.30;99.90
73643;DHT22;61938;48.652;9.292;2023-06-10T06:22:36;21.20;99.90
73643;DHT22;61938;48.652;9.292;2023-06-10T06:25:01;21.10;99.90
73643;DHT22;61938;48.652;9.292;2023-06-10T06:27:28;21.40;99.90
73643;DHT22;61938;48.652;9.292;2023-06-10T06:29:53;21.60;99.90
73643;DHT22;61938;48.652;9.292;2023-06-10T06:32:19;21.60;99.90
73643;DHT22;61938;48.652;9.292;2023-06-10T06:34:44;21.60;99.90
73643;DHT22;61938;48.652;9.292;2023-06-10T06:37:10;21.90;99.90
73643;DHT22;61938;48.652;9.292;2023-06-10T06:39:35;22.30;99.90
73643;DHT22;61938;48.652;9.292;2023-06-10T06:42:01;22.40;99.90
73643;DHT22;61938;48.652;9.292;2023-06-10T06:44:26;22.60;99.90
73643;DHT22;61938;48.652;9.292;2023-06-10T06:46:52;22.90;99.90
73643;DHT22;61938;48.652;9.292;2023-06-10T06:49:17;22.90;99.90
73643;DHT22;61938;48.652;9.292;2023-06-10T06:51:43;22.80;99.90
73643;DHT22;61938;48.652;9.292;2023-06-10T06:54:08;22.90;99.90
73643;DHT22;61938;48.652;9.292;2023-06-10T06:56:34;23.20;99.90
73643;DHT22;61938;48.652;9.292;2023-06-10T06:58:59;23.20;99.90
73643;DHT22;61938;48.652;9.292;2023-06-10T07:01:25;23.40;99.90
73643;DHT22;61938;48.652;9.292;2023-06-10T07:03:50;23.50;99.90
73643;DHT22;61938;48.652;9.292;2023-06-10T07:06:16;23.70;99.90
73643;DHT22;61938;48.652;9.292;2023-06-10T07:08:41;23.80;99.90
73643;DHT22;61938;48.652;9.292;2023-06-10T07:11:07;23.80;99.90
73643;DHT22;61938;48.652;9.292;2023-06-10T07:13:32;24.20;99.90
73643;DHT22;61938;48.652;9.292;2023-06-10T07:15:58;24.10;99.90
73643;DHT22;61938;48.652;9.292;2023-06-10T07:18:24;24.50;99.90
73643;DHT22;61938;48.652;9.292;2023-06-10T07:20:49;25.00;99.90
73643;DHT22;61938;48.652;9.292;2023-06-10T07:23:15;24.80;99.90
73643;DHT22;61938;48.652;9.292;2023-06-10T07:25:43;25.10;99.90
73643;DHT22;61938;48.652;9.292;2023-06-10T07:28:09;25.00;99.90
73643;DHT22;61938;48.652;9.292;2023-06-10T07:30:34;25.10;99.90
73643;DHT22;61938;48.652;9.292;2023-06-10T07:33:00;24.90;99.90
73643;DHT22;61938;48.652;9.292;2023-06-10T07:35:27;25.10;99.90
73643;DHT22;61938;48.652;9.292;2023-06-10T07:37:53;25.30;99.90
73643;DHT22;61938;48.652;9.292;2023-06-10T07:40:18;25.10;99.90
73643;DHT22;61938;48.652;9.292;2023-06-10T07:42:44;25.10;99.90
73643;DHT22;61938;48.652;9.292;2023-06-10T07:45:09;25.40;99.90
73643;DHT22;61938;48.652;9.292;2023-06-10T07:47:35;25.80;99.90
73643;DHT22;61938;48.652;9.292;2023-06-10T07:50:01;25.80;99.90
73643;DHT22;61938;48.652;9.292;2023-06-10T07:52:26;25.60;99.90
73643;DHT22;61938;48.652;9.292;2023-06-10T07:54:53;25.70;99.90
73643;DHT22;61938;48.652;9.292;2023-06-10T07:57:19;25.80;99.90
73643;DHT22;61938;48.652;9.292;2023-06-10T07:59:44;26.10;99.90
73643;DHT22;61938;48.652;9.292;2023-06-10T08:02:10;25.60;99.90
73643;DHT22;61938;48.652;9.292;2023-06-10T08:04:35;26.00;99.90
73643;DHT22;61938;48.652;9.292;2023-06-10T08:07:01;26.20;99.90
73643;DHT22;61938;48.652;9.292;2023-06-10T08:09:27;26.70;99.90
73643;DHT22;61938;48.652;9.292;2023-06-10T08:11:53;26.30;99.90
73643;DHT22;61938;48.652;9.292;2023-06-10T08:14:19;26.30;99.90
73643;DHT22;61938;48.652;9.292;2023-06-10T08:16:44;26.70;99.90
73643;DHT22;61938;48.652;9.292;2023-06-10T08:19:10;26.50;99.90
73643;DHT22;61938;48.652;9.292;2023-06-10T08:21:36;26.90;99.90
73643;DHT22;61938;48.652;9.292;2023-06-10T08:24:06;27.00;99.90
73643;DHT22;61938;48.652;9.292;2023-06-10T08:26:31;27.30;99.90
73643;DHT22;61938;48.652;9.292;2023-06-10T08:28:57;27.20;99.90
73643;DHT22;61938;48.652;9.292;2023-06-10T08:31:22;27.30;99.90
73643;DHT22;61938;48.652;9.292;2023-06-10T08:33:48;27.50;99.90
73643;DHT22;61938;48.652;9.292;2023-06-10T08:36:13;27.40;99.90
73643;DHT22;61938;48.652;9.292;2023-06-10T08:38:39;27.30;99.40
73643;DHT22;61938;48.652;9.292;2023-06-10T08:41:06;27.70;99.90
73643;DHT22;61938;48.652;9.292;2023-06-10T08:43:48;27.70;99.60
73643;DHT22;61938;48.652;9.292;2023-06-10T08:46:19;27.70;99.90
73643;DHT22;61938;48.652;9.292;2023-06-10T08:48:46;27.70;98.30
73643;DHT22;61938;48.652;9.292;2023-06-10T08:51:15;27.40;98.20
73643;DHT22;61938;48.652;9.292;2023-06-10T08:53:49;27.60;98.00
73643;DHT22;61938;48.652;9.292;2023-06-10T08:56:16;27.60;98.80
73643;DHT22;61938;48.652;9.292;2023-06-10T08:58:42;27.70;98.10
73643;DHT22;61938;48.652;9.292;2023-06-10T09:01:09;28.00;97.50
73643;DHT22;61938;48.652;9.292;2023-06-10T09:03:39;27.70;97.00
73643;DHT22;61938;48.652;9.292;2023-06-10T09:06:05;27.80;97.30
73643;DHT22;61938;48.652;9.292;2023-06-10T09:08:33;28.00;97.40
73643;DHT22;61938;48.652;9.292;2023-06-10T09:11:00;28.20;97.20
73643;DHT22;61938;48.652;9.292;2023-06-10T09:13:25;28.40;95.90
73643;DHT22;61938;48.652;9.292;2023-06-10T09:15:51;28.10;95.90
73643;DHT22;61938;48.652;9.292;2023-06-10T09:18:16;28.50;95.20
73643;DHT22;61938;48.652;9.292;2023-06-10T09:20:43;28.80;95.20
73643;DHT22;61938;48.652;9.292;2023-06-10T09:23:08;28.70;94.30
73643;DHT22;61938;48.652;9.292;2023-06-10T09:25:36;28.40;93.80
73643;DHT22;61938;48.652;9.292;2023-06-10T09:28:02;28.10;94.00
73643;DHT22;61938;48.652;9.292;2023-06-10T09:30:34;28.60;93.60
73643;DHT22;61938;48.652;9.292;2023-06-10T09:33:11;28.60;93.80
73643;DHT22;61938;48.652;9.292;2023-06-10T09:35:45;28.60;93.90
73643;DHT22;61938;48.652;9.292;2023-06-10T09:38:10;29.00;93.70
73643;DHT22;61938;48.652;9.292;2023-06-10T09:40:49;29.60;93.30
73643;DHT22;61938;48.652;9.292;2023-06-10T09:43:15;29.60;92.30
73643;DHT22;61938;48.652;9.292;2023-06-10T09:45:40;29.90;90.50
73643;DHT22;61938;48.652;9.292;2023-06-10T09:48:06;29.80;91.30
73643;DHT22;61938;48.652;9.292;2023-06-10T09:50:42;29.90;90.50
73643;DHT22;61938;48.652;9.292;2023-06-10T09:53:07;30.00;91.00
73643;DHT22;61938;48.652;9.292;2023-06-10T09:55:33;30.20;90.40
73643;DHT22;61938;48.652;9.292;2023-06-10T09:58:00;30.20;88.70
73643;DHT22;61938;48.652;9.292;2023-06-10T10:00:26;30.30;87.30
73643;DHT22;61938;48.652;9.292;2023-06-10T10:02:52;30.40;84.50
73643;DHT22;61938;48.652;9.292;2023-06-10T10:05:20;30.70;86.30
73643;DHT22;61938;48.652;9.292;2023-06-10T10:07:46;30.70;86.80
73643;DHT22;61938;48.652;9.292;2023-06-10T10:10:13;30.30;85.20
73643;DHT22;61938;48.652;9.292;2023-06-10T10:12:40;30.30;82.70
73643;DHT22;61938;48.652;9.292;2023-06-10T10:15:07;29.90;82.40
73643;DHT22;61938;48.652;9.292;2023-06-10T10:17:34;29.20;85.80
73643;DHT22;61938;48.652;9.292;2023-06-10T10:20:04;29.70;87.50
73643;DHT22;61938;48.652;9.292;2023-06-10T10:22:36;29.50;84.10
73643;DHT22;61938;48.652;9.292;2023-06-10T10:25:15;30.10;85.90
73643;DHT22;61938;48.652;9.292;2023-06-10T10:27:51;30.50;82.60
73643;DHT22;61938;48.652;9.292;2023-06-10T10:30:20;30.60;81.00
73643;DHT22;61938;48.652;9.292;2023-06-10T10:32:57;30.50;79.70
73643;DHT22;61938;48.652;9.292;2023-06-10T10:35:24;30.00;79.50
73643;DHT22;61938;48.652;9.292;2023-06-10T10:37:54;29.00;80.20
73643;DHT22;61938;48.652;9.292;2023-06-10T10:40:23;28.90;81.60
73643;DHT22;61938;48.652;9.292;2023-06-10T10:42:50;30.00;81.20
73643;DHT22;61938;48.652;9.292;2023-06-10T10:45:17;28.10;81.90
73643;DHT22;61938;48.652;9.292;2023-06-10T10:47:46;27.70;85.20
73643;DHT22;61938;48.652;9.292;2023-06-10T10:50:16;27.60;87.50
73643;DHT22;61938;48.652;9.292;2023-06-10T10:55:21;27.50;85.40
73643;DHT22;61938;48.652;9.292;2023-06-10T10:58:03;27.60;85.60
73643;DHT22;61938;48.652;9.292;2023-06-10T11:00:36;28.10;87.40
73643;DHT22;61938;48.652;9.292;2023-06-10T11:05:48;29.70;80.80
73643;DHT22;61938;48.652;9.292;2023-06-10T11:10:57;30.10;73.70
73643;DHT22;61938;48.652;9.292;2023-06-10T11:13:22;29.90;74.70
73643;DHT22;61938;48.652;9.292;2023-06-10T11:15:49;29.40;75.60
73643;DHT22;61938;48.652;9.292;2023-06-10T11:18:38;28.90;75.80
73643;DHT22;61938;48.652;9.292;2023-06-10T11:21:04;28.20;77.00
73643;DHT22;61938;48.652;9.292;2023-06-10T11:23:38;28.20;78.50
73643;DHT22;61938;48.652;9.292;2023-06-10T11:28:42;28.90;75.90
73643;DHT22;61938;48.652;9.292;2023-06-10T11:31:26;29.20;75.60
73643;DHT22;61938;48.652;9.292;2023-06-10T11:36:19;30.10;76.30
73643;DHT22;61938;48.652;9.292;2023-06-10T11:38:44;30.50;76.40
73643;DHT22;61938;48.652;9.292;2023-06-10T11:41:11;30.80;70.70
73643;DHT22;61938;48.652;9.292;2023-06-10T11:43:42;30.00;72.20
73643;DHT22;61938;48.652;9.292;2023-06-10T11:46:08;29.70;72.70
73643;DHT22;61938;48.652;9.292;2023-06-10T11:48:34;29.50;73.60
73643;DHT22;61938;48.652;9.292;2023-06-10T11:50:59;29.60;74.10
73643;DHT22;61938;48.652;9.292;2023-06-10T11:53:25;29.80;75.60
73643;DHT22;61938;48.652;9.292;2023-06-10T11:55:51;29.40;72.80
73643;DHT22;61938;48.652;9.292;2023-06-10T11:58:18;28.70;74.50
73643;DHT22;61938;48.652;9.292;2023-06-10T12:00:48;28.60;76.10
73643;DHT22;61938;48.652;9.292;2023-06-10T12:03:14;28.80;75.30
73643;DHT22;61938;48.652;9.292;2023-06-10T12:05:40;29.60;75.20
73643;DHT22;61938;48.652;9.292;2023-06-10T12:08:12;29.90;76.80
73643;DHT22;61938;48.652;9.292;2023-06-10T12:10:41;30.40;75.60
73643;DHT22;61938;48.652;9.292;2023-06-10T12:13:08;30.30;71.80
73643;DHT22;61938;48.652;9.292;2023-06-10T12:15:34;29.60;71.50
73643;DHT22;61938;48.652;9.292;2023-06-10T12:17:59;29.10;73.30
73643;DHT22;61938;48.652;9.292;2023-06-10T12:20:30;29.00;73.30
73643;DHT22;61938;48.652;9.292;2023-06-10T12:22:59;29.20;73.00
73643;DHT22;61938;48.652;9.292;2023-06-10T12:25:25;29.30;73.30
73643;DHT22;61938;48.652;9.292;2023-06-10T12:27:56;29.60;74.90
73643;DHT22;61938;48.652;9.292;2023-06-10T12:30:24;30.10;71.60
73643;DHT22;61938;48.652;9.292;2023-06-10T12:32:51;29.90;70.60
73643;DHT22;61938;48.652;9.292;2023-06-10T12:35:22;30.20;71.10
73643;DHT22;61938;48.652;9.292;2023-06-10T12:40:33;30.70;69.00
73643;DHT22;61938;48.652;9.292;2023-06-10T12:42:59;30.90;69.00
73643;DHT22;61938;48.652;9.292;2023-06-10T12:45:33;31.00;66.90
73643;DHT22;61938;48.652;9.292;2023-06-10T12:48:16;30.80;67.80
73643;DHT22;61938;48.652;9.292;2023-06-10T12:50:43;30.60;68.60
73643;DHT22;61938;48.652;9.292;2023-06-10T12:53:09;30.00;68.60
73643;DHT22;61938;48.652;9.292;2023-06-10T12:55:37;29.20;68.80
73643;DHT22;61938;48.652;9.292;2023-06-10T12:58:03;29.10;71.80
73643;DHT22;61938;48.652;9.292;2023-06-10T13:00:28;29.50;75.30
73643;DHT22;61938;48.652;9.292;2023-06-10T13:03:04;29.90;73.20
73643;DHT22;61938;48.652;9.292;2023-06-10T13:05:31;29.70;72.20
73643;DHT22;61938;48.652;9.292;2023-06-10T13:07:58;29.60;72.10
73643;DHT22;61938;48.652;9.292;2023-06-10T13:10:23;29.50;71.90
73643;DHT22;61938;48.652;9.292;2023-06-10T13:12:50;29.90;72.00
73643;DHT22;61938;48.652;9.292;2023-06-10T13:15:17;30.40;74.60
73643;DHT22;61938;48.652;9.292;2023-06-10T13:17:44;30.90;72.90
73643;DHT22;61938;48.652;9.292;2023-06-10T13:20:11;30.60;68.20
73643;DHT22;61938;48.652;9.292;2023-06-10T13:22:36;29.90;67.60
73643;DHT22;61938;48.652;9.292;2023-06-10T13:25:05;29.30;70.10
73643;DHT22;61938;48.652;9.292;2023-06-10T13:27:33;29.00;70.90
73643;DHT22;61938;48.652;9.292;2023-06-10T13:29:59;28.40;69.30
73643;DHT22;61938;48.652;9.292;2023-06-10T13:32:25;28.60;71.80
73643;DHT22;61938;48.652;9.292;2023-06-10T13:34:50;29.20;73.30
73643;DHT22;61938;48.652;9.292;2023-06-10T13:37:16;29.70;70.30
73643;DHT22;61938;48.652;9.292;2023-06-10T13:39:43;30.00;68.50
73643;DHT22;61938;48.652;9.292;2023-06-10T13:42:08;30.30;69.70
73643;DHT22;61938;48.652;9.292;2023-06-10T13:44:34;30.00;67.10
73643;DHT22;61938;48.652;9.292;2023-06-10T13:47:02;29.50;68.20
73643;DHT22;61938;48.652;9.292;2023-06-10T13:49:28;29.00;68.70
73643;DHT22;61938;48.652;9.292;2023-06-10T13:51:53;28.40;69.60
73643;DHT22;61938;48.652;9.292;2023-06-10T13:54:19;28.10;69.30
73643;DHT22;61938;48.652;9.292;2023-06-10T13:56:44;28.50;70.70
73643;DHT22;61938;48.652;9.292;2023-06-10T13:59:10;29.20;70.30
73643;DHT22;61938;48.652;9.292;2023-06-10T14:01:35;29.20;71.60
73643;DHT22;61938;48.652;9.292;2023-06-10T14:04:01;29.60;70.20
73643;DHT22;61938;48.652;9.292;2023-06-10T14:06:27;29.40;69.00
73643;DHT22;61938;48.652;9.292;2023-06-10T14:08:53;28.80;68.70
73643;DHT22;61938;48.652;9.292;2023-06-10T14:11:20;28.30;69.90
73643;DHT22;61938;48.652;9.292;2023-06-10T14:13:46;27.90;71.20
73643;DHT22;61938;48.652;9.292;2023-06-10T14:16:12;27.60;72.20
73643;DHT22;61938;48.652;9.292;2023-06-10T14:18:37;28.10;71.60
73643;DHT22;61938;48.652;9.292;2023-06-10T14:21:03;28.40;71.50
73643;DHT22;61938;48.652;9.292;2023-06-10T14:23:28;28.70;71.90
73643;DHT22;61938;48.652;9.292;2023-06-10T14:25:54;29.10;71.30
73643;DHT22;61938;48.652;9.292;2023-06-10T14:28:19;29.50;74.10
73643;DHT22;61938;48.652;9.292;2023-06-10T14:30:45;29.80;72.00
73643;DHT22;61938;48.652;9.292;2023-06-10T14:33:10;29.90;71.00
73643;DHT22;61938;48.652;9.292;2023-06-10T14:35:36;29.40;70.40
73643;DHT22;61938;48.652;9.292;2023-06-10T14:38:01;28.90;70.50
73643;DHT22;61938;48.652;9.292;2023-06-10T14:40:27;28.30;71.50
73643;DHT22;61938;48.652;9.292;2023-06-10T14:42:54;27.90;73.50
73643;DHT22;61938;48.652;9.292;2023-06-10T14:45:20;27.60;73.70
73643;DHT22;61938;48.652;9.292;2023-06-10T14:47:46;27.40;73.50
73643;DHT22;61938;48.652;9.292;2023-06-10T14:50:12;27.40;74.20
73643;DHT22;61938;48.652;9.292;2023-06-10T14:52:38;27.50;73.90
73643;DHT22;61938;48.652;9.292;2023-06-10T14:55:04;27.70;73.60
73643;DHT22;61938;48.652;9.292;2023-06-10T14:57:29;28.10;73.50
73643;DHT22;61938;48.652;9.292;2023-06-10T14:59:55;28.40;73.00
73643;DHT22;61938;48.652;9.292;2023-06-10T15:02:22;28.60;72.00
73643;DHT22;61938;48.652;9.292;2023-06-10T15:04:47;28.70;72.50
73643;DHT22;61938;48.652;9.292;2023-06-10T15:07:13;28.80;73.80
73643;DHT22;61938;48.652;9.292;2023-06-10T15:09:41;29.00;75.70
73643;DHT22;61938;48.652;9.292;2023-06-10T15:12:06;28.90;74.20
73643;DHT22;61938;48.652;9.292;2023-06-10T15:14:32;29.00;72.50
73643;DHT22;61938;48.652;9.292;2023-06-10T15:16:58;28.60;72.10
73643;DHT22;61938;48.652;9.292;2023-06-10T15:19:25;28.50;72.20
73643;DHT22;61938;48.652;9.292;2023-06-10T15:21:51;28.10;72.40
73643;DHT22;61938;48.652;9.292;2023-06-10T15:24:17;28.00;72.20
73643;DHT22;61938;48.652;9.292;2023-06-10T15:26:42;27.70;72.50
73643;DHT22;61938;48.652;9.292;2023-06-10T15:29:08;27.40;73.70
73643;DHT22;61938;48.652;9.292;2023-06-10T15:31:34;27.20;75.40
73643;DHT22;61938;48.652;9.292;2023-06-10T15:34:00;27.30;74.60
73643;DHT22;61938;48.652;9.292;2023-06-10T15:36:26;27.00;77.00
73643;DHT22;61938;48.652;9.292;2023-06-10T15:38:52;27.20;78.00
73643;DHT22;61938;48.652;9.292;2023-06-10T15:41:18;27.30;76.20
73643;DHT22;61938;48.652;9.292;2023-06-10T15:43:44;27.50;76.20
73643;DHT22;61938;48.652;9.292;2023-06-10T15:46:10;27.60;74.80